« Back
NWS Peachtree City, Ga » Text Product » MCN Terminal Aerodrome Forecast


Printer-friendly Version
Current Version              Previous Versions:   1  2  3  4  5  6  7  8  9  

Terminal Aerodrome Forecast

646
FTUS42 KFFC 201700
TAFMCN
TAF
KMCN 201732Z 2018/2118 29007KT P6SM VCSH SCT045
      TEMPO 2018/2022 VRB15G25KT 3SM -TSRA BKN030CB
     FM210200 28003KT P6SM FEW070
     FM211100 00000KT 5SM BR FEW080
     FM211300 00000KT P6SM FEW060=

USA.gov is the U.S. government's official web portal to all federal, state and local government web resources and services.